sensor_id;sensor_type;location;lat;lon;timestamp;P1;durP1;ratioP1;P2;durP2;ratioP2
23730;SDS011;12046;44.702;10.622;2024-02-26T00:01:35;2.67;;;1.83;;
23730;SDS011;12046;44.702;10.622;2024-02-26T00:04:01;3.10;;;1.80;;
23730;SDS011;12046;44.702;10.622;2024-02-26T00:06:31;2.08;;;1.80;;
23730;SDS011;12046;44.702;10.622;2024-02-26T00:08:56;2.10;;;1.80;;
23730;SDS011;12046;44.702;10.622;2024-02-26T00:11:22;2.50;;;2.00;;
23730;SDS011;12046;44.702;10.622;2024-02-26T00:13:48;1.92;;;1.77;;
23730;SDS011;12046;44.702;10.622;2024-02-26T00:16:14;1.77;;;1.67;;
23730;SDS011;12046;44.702;10.622;2024-02-26T00:18:39;2.28;;;1.80;;
23730;SDS011;12046;44.702;10.622;2024-02-26T00:21:05;1.92;;;1.60;;
23730;SDS011;12046;44.702;10.622;2024-02-26T00:23:31;1.88;;;1.65;;
23730;SDS011;12046;44.702;10.622;2024-02-26T00:25:57;3.17;;;2.20;;
23730;SDS011;12046;44.702;10.622;2024-02-26T00:28:23;3.38;;;2.55;;
23730;SDS011;12046;44.702;10.622;2024-02-26T00:30:50;2.40;;;2.10;;
23730;SDS011;12046;44.702;10.622;2024-02-26T00:33:21;3.38;;;2.28;;
23730;SDS011;12046;44.702;10.622;2024-02-26T00:35:48;4.82;;;2.60;;
23730;SDS011;12046;44.702;10.622;2024-02-26T00:38:15;3.42;;;2.42;;
23730;SDS011;12046;44.702;10.622;2024-02-26T00:40:40;2.50;;;2.30;;
23730;SDS011;12046;44.702;10.622;2024-02-26T00:43:06;3.05;;;2.60;;
23730;SDS011;12046;44.702;10.622;2024-02-26T00:45:32;2.47;;;2.22;;
23730;SDS011;12046;44.702;10.622;2024-02-26T00:47:58;3.42;;;2.65;;
23730;SDS011;12046;44.702;10.622;2024-02-26T00:50:26;3.95;;;2.67;;
23730;SDS011;12046;44.702;10.622;2024-02-26T00:52:52;4.47;;;3.03;;
23730;SDS011;12046;44.702;10.622;2024-02-26T00:55:18;3.05;;;2.75;;
23730;SDS011;12046;44.702;10.622;2024-02-26T00:57:43;3.30;;;2.80;;
23730;SDS011;12046;44.702;10.622;2024-02-26T01:00:09;3.90;;;3.05;;
23730;SDS011;12046;44.702;10.622;2024-02-26T01:02:35;3.85;;;3.40;;
23730;SDS011;12046;44.702;10.622;2024-02-26T01:05:01;3.95;;;3.50;;
23730;SDS011;12046;44.702;10.622;2024-02-26T01:07:28;3.72;;;3.05;;
23730;SDS011;12046;44.702;10.622;2024-02-26T01:09:54;4.85;;;3.75;;
23730;SDS011;12046;44.702;10.622;2024-02-26T01:12:19;4.22;;;3.80;;
23730;SDS011;12046;44.702;10.622;2024-02-26T01:14:45;4.85;;;3.60;;
23730;SDS011;12046;44.702;10.622;2024-02-26T01:17:11;4.18;;;3.78;;
23730;SDS011;12046;44.702;10.622;2024-02-26T01:19:36;4.18;;;3.40;;
23730;SDS011;12046;44.702;10.622;2024-02-26T01:22:02;4.38;;;3.55;;
23730;SDS011;12046;44.702;10.622;2024-02-26T01:24:29;3.50;;;3.10;;
23730;SDS011;12046;44.702;10.622;2024-02-26T01:26:54;3.85;;;3.30;;
23730;SDS011;12046;44.702;10.622;2024-02-26T01:29:20;3.72;;;3.22;;
23730;SDS011;12046;44.702;10.622;2024-02-26T01:31:46;3.85;;;3.55;;
23730;SDS011;12046;44.702;10.622;2024-02-26T01:34:11;3.95;;;3.05;;
23730;SDS011;12046;44.702;10.622;2024-02-26T01:36:37;3.38;;;3.08;;
23730;SDS011;12046;44.702;10.622;2024-02-26T01:39:03;4.03;;;3.28;;
23730;SDS011;12046;44.702;10.622;2024-02-26T01:41:29;3.30;;;3.00;;
23730;SDS011;12046;44.702;10.622;2024-02-26T01:43:54;3.50;;;3.08;;
23730;SDS011;12046;44.702;10.622;2024-02-26T01:46:20;3.67;;;3.25;;
23730;SDS011;12046;44.702;10.622;2024-02-26T01:48:46;5.32;;;3.67;;
23730;SDS011;12046;44.702;10.622;2024-02-26T01:51:13;6.10;;;4.30;;
23730;SDS011;12046;44.702;10.622;2024-02-26T01:53:39;4.90;;;4.40;;
23730;SDS011;12046;44.702;10.622;2024-02-26T01:56:06;4.43;;;4.00;;
23730;SDS011;12046;44.702;10.622;2024-02-26T01:58:32;4.10;;;3.70;;
23730;SDS011;12046;44.702;10.622;2024-02-26T02:00:57;4.55;;;3.85;;
23730;SDS011;12046;44.702;10.622;2024-02-26T02:03:24;5.15;;;4.10;;
23730;SDS011;12046;44.702;10.622;2024-02-26T02:05:50;4.50;;;4.10;;
23730;SDS011;12046;44.702;10.622;2024-02-26T02:08:15;4.10;;;3.70;;
23730;SDS011;12046;44.702;10.622;2024-02-26T02:10:41;3.78;;;3.30;;
23730;SDS011;12046;44.702;10.622;2024-02-26T02:13:07;4.70;;;4.10;;
23730;SDS011;12046;44.702;10.622;2024-02-26T02:15:33;5.15;;;4.00;;
23730;SDS011;12046;44.702;10.622;2024-02-26T02:17:59;4.68;;;4.05;;
23730;SDS011;12046;44.702;10.622;2024-02-26T02:20:32;5.25;;;3.75;;
23730;SDS011;12046;44.702;10.622;2024-02-26T02:22:58;3.42;;;3.13;;
23730;SDS011;12046;44.702;10.622;2024-02-26T02:25:24;3.78;;;3.08;;
23730;SDS011;12046;44.702;10.622;2024-02-26T02:27:50;3.20;;;2.90;;
23730;SDS011;12046;44.702;10.622;2024-02-26T02:30:16;3.53;;;2.55;;
23730;SDS011;12046;44.702;10.622;2024-02-26T02:32:42;3.47;;;2.53;;
23730;SDS011;12046;44.702;10.622;2024-02-26T02:35:08;3.13;;;2.72;;
23730;SDS011;12046;44.702;10.622;2024-02-26T02:37:33;2.42;;;2.20;;
23730;SDS011;12046;44.702;10.622;2024-02-26T02:39:59;2.25;;;2.05;;
23730;SDS011;12046;44.702;10.622;2024-02-26T02:42:26;2.10;;;1.90;;
23730;SDS011;12046;44.702;10.622;2024-02-26T02:44:52;2.05;;;1.92;;
23730;SDS011;12046;44.702;10.622;2024-02-26T02:47:18;3.92;;;2.40;;
23730;SDS011;12046;44.702;10.622;2024-02-26T02:49:43;2.38;;;1.95;;
23730;SDS011;12046;44.702;10.622;2024-02-26T02:52:09;2.58;;;2.17;;
23730;SDS011;12046;44.702;10.622;2024-02-26T02:54:35;2.08;;;1.88;;
23730;SDS011;12046;44.702;10.622;2024-02-26T02:57:02;1.92;;;1.75;;
23730;SDS011;12046;44.702;10.622;2024-02-26T02:59:28;4.03;;;1.90;;
23730;SDS011;12046;44.702;10.622;2024-02-26T03:01:54;1.70;;;1.60;;
23730;SDS011;12046;44.702;10.622;2024-02-26T03:04:20;2.50;;;2.10;;
23730;SDS011;12046;44.702;10.622;2024-02-26T03:06:45;2.20;;;2.00;;
23730;SDS011;12046;44.702;10.622;2024-02-26T03:09:11;1.95;;;1.85;;
23730;SDS011;12046;44.702;10.622;2024-02-26T03:11:37;2.20;;;2.00;;
23730;SDS011;12046;44.702;10.622;2024-02-26T03:14:02;3.45;;;1.83;;
23730;SDS011;12046;44.702;10.622;2024-02-26T03:16:28;2.22;;;1.73;;
23730;SDS011;12046;44.702;10.622;2024-02-26T03:18:54;2.25;;;2.00;;
23730;SDS011;12046;44.702;10.622;2024-02-26T03:21:20;2.15;;;1.95;;
23730;SDS011;12046;44.702;10.622;2024-02-26T03:23:46;2.40;;;1.90;;
23730;SDS011;12046;44.702;10.622;2024-02-26T03:26:12;1.85;;;1.75;;
23730;SDS011;12046;44.702;10.622;2024-02-26T03:28:40;1.83;;;1.73;;
23730;SDS011;12046;44.702;10.622;2024-02-26T03:31:05;2.50;;;2.30;;
23730;SDS011;12046;44.702;10.622;2024-02-26T03:33:31;2.28;;;2.05;;
23730;SDS011;12046;44.702;10.622;2024-02-26T03:35:57;2.35;;;1.92;;
23730;SDS011;12046;44.702;10.622;2024-02-26T03:38:22;2.97;;;2.00;;
23730;SDS011;12046;44.702;10.622;2024-02-26T03:40:48;3.42;;;2.20;;
23730;SDS011;12046;44.702;10.622;2024-02-26T03:43:14;2.80;;;2.60;;
23730;SDS011;12046;44.702;10.622;2024-02-26T03:45:39;3.65;;;2.80;;
23730;SDS011;12046;44.702;10.622;2024-02-26T03:48:05;3.28;;;2.97;;
23730;SDS011;12046;44.702;10.622;2024-02-26T03:50:31;3.88;;;3.45;;
23730;SDS011;12046;44.702;10.622;2024-02-26T03:52:57;3.95;;;3.35;;
23730;SDS011;12046;44.702;10.622;2024-02-26T03:55:23;4.78;;;3.60;;
23730;SDS011;12046;44.702;10.622;2024-02-26T03:57:51;4.40;;;3.90;;
23730;SDS011;12046;44.702;10.622;2024-02-26T04:00:17;4.43;;;4.03;;
23730;SDS011;12046;44.702;10.622;2024-02-26T04:02:43;5.10;;;4.60;;
23730;SDS011;12046;44.702;10.622;2024-02-26T04:05:09;5.63;;;5.10;;
23730;SDS011;12046;44.702;10.622;2024-02-26T04:07:35;6.85;;;4.78;;
23730;SDS011;12046;44.702;10.622;2024-02-26T04:10:01;4.85;;;4.13;;
23730;SDS011;12046;44.702;10.622;2024-02-26T04:12:30;6.13;;;4.93;;
23730;SDS011;12046;44.702;10.622;2024-02-26T04:14:56;4.80;;;4.22;;
23730;SDS011;12046;44.702;10.622;2024-02-26T04:17:21;4.28;;;3.67;;
23730;SDS011;12046;44.702;10.622;2024-02-26T04:19:47;4.00;;;3.28;;
23730;SDS011;12046;44.702;10.622;2024-02-26T04:22:13;3.50;;;3.20;;
23730;SDS011;12046;44.702;10.622;2024-02-26T04:24:39;3.55;;;3.25;;
23730;SDS011;12046;44.702;10.622;2024-02-26T04:27:04;3.30;;;3.00;;
23730;SDS011;12046;44.702;10.622;2024-02-26T04:29:30;3.35;;;2.95;;
23730;SDS011;12046;44.702;10.622;2024-02-26T04:31:56;3.67;;;3.05;;
23730;SDS011;12046;44.702;10.622;2024-02-26T04:34:22;3.50;;;3.20;;
23730;SDS011;12046;44.702;10.622;2024-02-26T04:36:47;3.30;;;3.00;;
23730;SDS011;12046;44.702;10.622;2024-02-26T04:39:13;3.47;;;3.10;;
23730;SDS011;12046;44.702;10.622;2024-02-26T04:41:39;3.63;;;2.63;;
23730;SDS011;12046;44.702;10.622;2024-02-26T04:44:05;2.70;;;2.50;;
23730;SDS011;12046;44.702;10.622;2024-02-26T04:46:31;3.20;;;2.90;;
23730;SDS011;12046;44.702;10.622;2024-02-26T04:48:57;4.43;;;2.90;;
23730;SDS011;12046;44.702;10.622;2024-02-26T04:51:22;3.13;;;2.83;;
23730;SDS011;12046;44.702;10.622;2024-02-26T04:53:48;3.13;;;2.83;;
23730;SDS011;12046;44.702;10.622;2024-02-26T04:56:14;2.97;;;2.55;;
23730;SDS011;12046;44.702;10.622;2024-02-26T04:58:40;2.67;;;2.47;;
23730;SDS011;12046;44.702;10.622;2024-02-26T05:01:05;4.97;;;3.80;;
23730;SDS011;12046;44.702;10.622;2024-02-26T05:03:31;5.38;;;3.15;;
23730;SDS011;12046;44.702;10.622;2024-02-26T05:05:57;4.18;;;3.72;;
23730;SDS011;12046;44.702;10.622;2024-02-26T05:08:23;3.55;;;3.25;;
23730;SDS011;12046;44.702;10.622;2024-02-26T05:10:49;3.45;;;2.92;;
23730;SDS011;12046;44.702;10.622;2024-02-26T05:13:15;3.50;;;3.17;;
23730;SDS011;12046;44.702;10.622;2024-02-26T05:15:43;4.22;;;3.80;;
23730;SDS011;12046;44.702;10.622;2024-02-26T05:18:09;4.95;;;4.03;;
23730;SDS011;12046;44.702;10.622;2024-02-26T05:20:35;4.15;;;3.75;;
23730;SDS011;12046;44.702;10.622;2024-02-26T05:23:01;5.00;;;4.40;;
23730;SDS011;12046;44.702;10.622;2024-02-26T05:25:27;5.82;;;4.72;;
23730;SDS011;12046;44.702;10.622;2024-02-26T05:27:52;6.35;;;5.72;;
23730;SDS011;12046;44.702;10.622;2024-02-26T05:30:18;6.82;;;5.55;;
23730;SDS011;12046;44.702;10.622;2024-02-26T05:32:44;7.53;;;6.85;;
23730;SDS011;12046;44.702;10.622;2024-02-26T05:35:10;8.75;;;7.85;;
23730;SDS011;12046;44.702;10.622;2024-02-26T05:37:35;10.77;;;8.95;;
23730;SDS011;12046;44.702;10.622;2024-02-26T05:40:01;11.60;;;9.60;;
23730;SDS011;12046;44.702;10.622;2024-02-26T05:42:29;10.60;;;9.23;;
23730;SDS011;12046;44.702;10.622;2024-02-26T05:44:55;10.25;;;9.25;;
23730;SDS011;12046;44.702;10.622;2024-02-26T05:47:21;9.38;;;8.40;;
23730;SDS011;12046;44.702;10.622;2024-02-26T05:49:47;9.10;;;8.18;;
23730;SDS011;12046;44.702;10.622;2024-02-26T05:52:13;8.13;;;7.32;;
23730;SDS011;12046;44.702;10.622;2024-02-26T05:54:38;8.18;;;7.38;;
23730;SDS011;12046;44.702;10.622;2024-02-26T05:57:04;8.98;;;8.15;;
23730;SDS011;12046;44.702;10.622;2024-02-26T05:59:30;9.20;;;8.30;;
23730;SDS011;12046;44.702;10.622;2024-02-26T06:01:56;8.43;;;7.63;;
23730;SDS011;12046;44.702;10.622;2024-02-26T06:04:21;11.73;;;10.52;;
23730;SDS011;12046;44.702;10.622;2024-02-26T06:06:47;10.02;;;8.93;;
23730;SDS011;12046;44.702;10.622;2024-02-26T06:09:13;8.02;;;7.28;;
23730;SDS011;12046;44.702;10.622;2024-02-26T06:11:39;8.23;;;7.45;;
23730;SDS011;12046;44.702;10.622;2024-02-26T06:14:04;9.88;;;7.72;;
23730;SDS011;12046;44.702;10.622;2024-02-26T06:16:30;9.85;;;8.30;;
23730;SDS011;12046;44.702;10.622;2024-02-26T06:18:56;8.82;;;7.82;;
23730;SDS011;12046;44.702;10.622;2024-02-26T06:21:22;9.10;;;6.88;;
23730;SDS011;12046;44.702;10.622;2024-02-26T06:23:48;8.73;;;7.13;;
23730;SDS011;12046;44.702;10.622;2024-02-26T06:26:16;8.57;;;7.57;;
23730;SDS011;12046;44.702;10.622;2024-02-26T06:28:41;7.53;;;6.80;;
23730;SDS011;12046;44.702;10.622;2024-02-26T06:31:07;7.88;;;7.07;;
23730;SDS011;12046;44.702;10.622;2024-02-26T06:33:36;7.63;;;6.93;;
23730;SDS011;12046;44.702;10.622;2024-02-26T06:36:01;8.27;;;6.38;;
23730;SDS011;12046;44.702;10.622;2024-02-26T06:38:27;6.45;;;5.85;;
23730;SDS011;12046;44.702;10.622;2024-02-26T06:40:53;7.38;;;6.50;;
23730;SDS011;12046;44.702;10.622;2024-02-26T06:43:19;7.82;;;7.10;;
23730;SDS011;12046;44.702;10.622;2024-02-26T06:45:44;9.13;;;7.50;;
23730;SDS011;12046;44.702;10.622;2024-02-26T06:48:10;10.95;;;9.95;;
23730;SDS011;12046;44.702;10.622;2024-02-26T06:50:36;10.38;;;9.35;;
23730;SDS011;12046;44.702;10.622;2024-02-26T06:53:01;11.18;;;10.07;;
23730;SDS011;12046;44.702;10.622;2024-02-26T06:55:27;10.90;;;9.82;;
23730;SDS011;12046;44.702;10.622;2024-02-26T06:57:53;11.63;;;9.70;;
23730;SDS011;12046;44.702;10.622;2024-02-26T07:00:19;10.82;;;9.73;;
23730;SDS011;12046;44.702;10.622;2024-02-26T07:02:44;10.90;;;9.82;;
23730;SDS011;12046;44.702;10.622;2024-02-26T07:05:10;9.45;;;8.45;;
23730;SDS011;12046;44.702;10.622;2024-02-26T07:07:36;10.18;;;9.23;;
23730;SDS011;12046;44.702;10.622;2024-02-26T07:10:02;12.70;;;10.43;;
23730;SDS011;12046;44.702;10.622;2024-02-26T07:12:31;10.13;;;8.98;;
23730;SDS011;12046;44.702;10.622;2024-02-26T07:14:56;11.40;;;10.20;;
23730;SDS011;12046;44.702;10.622;2024-02-26T07:17:23;11.02;;;9.95;;
23730;SDS011;12046;44.702;10.622;2024-02-26T07:19:49;12.88;;;11.52;;
23730;SDS011;12046;44.702;10.622;2024-02-26T07:22:15;11.00;;;9.85;;
23730;SDS011;12046;44.702;10.622;2024-02-26T07:24:41;10.95;;;9.85;;
23730;SDS011;12046;44.702;10.622;2024-02-26T07:27:07;12.52;;;10.55;;
23730;SDS011;12046;44.702;10.622;2024-02-26T07:29:34;13.82;;;11.35;;
23730;SDS011;12046;44.702;10.622;2024-02-26T07:31:59;12.55;;;11.30;;
23730;SDS011;12046;44.702;10.622;2024-02-26T07:34:25;13.07;;;11.77;;
23730;SDS011;12046;44.702;10.622;2024-02-26T07:36:55;14.20;;;12.70;;
23730;SDS011;12046;44.702;10.622;2024-02-26T07:39:21;14.18;;;12.88;;
23730;SDS011;12046;44.702;10.622;2024-02-26T07:41:47;13.88;;;12.38;;
23730;SDS011;12046;44.702;10.622;2024-02-26T07:44:15;14.40;;;12.65;;
23730;SDS011;12046;44.702;10.622;2024-02-26T07:46:42;14.45;;;13.05;;
23730;SDS011;12046;44.702;10.622;2024-02-26T07:49:08;13.40;;;12.10;;
23730;SDS011;12046;44.702;10.622;2024-02-26T07:51:33;14.27;;;12.05;;
23730;SDS011;12046;44.702;10.622;2024-02-26T07:54:00;14.07;;;12.32;;
23730;SDS011;12046;44.702;10.622;2024-02-26T07:56:26;13.40;;;12.00;;
23730;SDS011;12046;44.702;10.622;2024-02-26T07:58:52;12.60;;;10.70;;
23730;SDS011;12046;44.702;10.622;2024-02-26T08:01:17;11.07;;;9.98;;
23730;SDS011;12046;44.702;10.622;2024-02-26T08:03:43;10.50;;;9.50;;
23730;SDS011;12046;44.702;10.622;2024-02-26T08:06:10;10.10;;;9.10;;
23730;SDS011;12046;44.702;10.622;2024-02-26T08:08:36;10.25;;;8.93;;
23730;SDS011;12046;44.702;10.622;2024-02-26T08:11:02;9.35;;;8.50;;
23730;SDS011;12046;44.702;10.622;2024-02-26T08:13:27;9.60;;;8.63;;
23730;SDS011;12046;44.702;10.622;2024-02-26T08:15:53;9.00;;;7.97;;
23730;SDS011;12046;44.702;10.622;2024-02-26T08:18:19;7.32;;;6.72;;
23730;SDS011;12046;44.702;10.622;2024-02-26T08:20:44;6.97;;;6.35;;
23730;SDS011;12046;44.702;10.622;2024-02-26T08:23:10;7.60;;;6.93;;
23730;SDS011;12046;44.702;10.622;2024-02-26T08:25:36;7.25;;;6.10;;
23730;SDS011;12046;44.702;10.622;2024-02-26T08:28:01;5.68;;;5.07;;
23730;SDS011;12046;44.702;10.622;2024-02-26T08:30:27;5.70;;;5.00;;
23730;SDS011;12046;44.702;10.622;2024-02-26T08:32:53;6.68;;;4.70;;
23730;SDS011;12046;44.702;10.622;2024-02-26T08:35:19;5.25;;;4.75;;
23730;SDS011;12046;44.702;10.622;2024-02-26T08:37:45;4.65;;;4.25;;
23730;SDS011;12046;44.702;10.622;2024-02-26T08:40:11;4.57;;;3.92;;
23730;SDS011;12046;44.702;10.622;2024-02-26T08:42:37;5.55;;;5.05;;
23730;SDS011;12046;44.702;10.622;2024-02-26T08:45:03;4.85;;;4.35;;
23730;SDS011;12046;44.702;10.622;2024-02-26T08:47:29;4.75;;;4.25;;
23730;SDS011;12046;44.702;10.622;2024-02-26T08:49:55;5.22;;;4.72;;
23730;SDS011;12046;44.702;10.622;2024-02-26T08:52:21;5.13;;;4.72;;
23730;SDS011;12046;44.702;10.622;2024-02-26T08:54:50;6.50;;;5.30;;
23730;SDS011;12046;44.702;10.622;2024-02-26T08:57:16;4.47;;;3.97;;
23730;SDS011;12046;44.702;10.622;2024-02-26T08:59:42;5.68;;;5.18;;
23730;SDS011;12046;44.702;10.622;2024-02-26T09:02:08;6.90;;;5.20;;
23730;SDS011;12046;44.702;10.622;2024-02-26T09:04:34;5.75;;;5.05;;
23730;SDS011;12046;44.702;10.622;2024-02-26T09:07:01;4.95;;;4.45;;
23730;SDS011;12046;44.702;10.622;2024-02-26T09:09:27;5.30;;;4.85;;
23730;SDS011;12046;44.702;10.622;2024-02-26T09:11:53;5.55;;;5.05;;
23730;SDS011;12046;44.702;10.622;2024-02-26T09:14:20;6.57;;;5.40;;
23730;SDS011;12046;44.702;10.622;2024-02-26T09:16:46;6.85;;;5.53;;
23730;SDS011;12046;44.702;10.622;2024-02-26T09:19:14;7.28;;;5.50;;
23730;SDS011;12046;44.702;10.622;2024-02-26T09:21:43;5.95;;;4.68;;
23730;SDS011;12046;44.702;10.622;2024-02-26T09:24:10;5.10;;;4.65;;
23730;SDS011;12046;44.702;10.622;2024-02-26T09:26:35;5.55;;;5.05;;
23730;SDS011;12046;44.702;10.622;2024-02-26T09:29:02;5.40;;;4.90;;
23730;SDS011;12046;44.702;10.622;2024-02-26T09:31:27;5.50;;;4.97;;
23730;SDS011;12046;44.702;10.622;2024-02-26T09:33:53;5.82;;;5.22;;
23730;SDS011;12046;44.702;10.622;2024-02-26T09:36:20;6.20;;;5.60;;
23730;SDS011;12046;44.702;10.622;2024-02-26T09:38:45;5.50;;;5.00;;
23730;SDS011;12046;44.702;10.622;2024-02-26T09:41:15;5.75;;;5.25;;
23730;SDS011;12046;44.702;10.622;2024-02-26T09:43:49;5.22;;;4.75;;
23730;SDS011;12046;44.702;10.622;2024-02-26T09:46:16;4.93;;;4.53;;
23730;SDS011;12046;44.702;10.622;2024-02-26T09:48:45;4.93;;;4.30;;
23730;SDS011;12046;44.702;10.622;2024-02-26T09:51:12;5.10;;;4.60;;
23730;SDS011;12046;44.702;10.622;2024-02-26T09:53:38;4.60;;;4.30;;
23730;SDS011;12046;44.702;10.622;2024-02-26T09:56:07;4.32;;;3.85;;
23730;SDS011;12046;44.702;10.622;2024-02-26T09:58:33;4.40;;;3.97;;
23730;SDS011;12046;44.702;10.622;2024-02-26T10:01:00;5.45;;;4.95;;
23730;SDS011;12046;44.702;10.622;2024-02-26T10:03:32;5.43;;;4.95;;
23730;SDS011;12046;44.702;10.622;2024-02-26T10:06:00;4.93;;;4.43;;
23730;SDS011;12046;44.702;10.622;2024-02-26T10:08:28;4.88;;;4.38;;
23730;SDS011;12046;44.702;10.622;2024-02-26T10:10:54;4.43;;;4.03;;
23730;SDS011;12046;44.702;10.622;2024-02-26T10:13:19;5.03;;;4.55;;
23730;SDS011;12046;44.702;10.622;2024-02-26T10:15:46;4.50;;;4.10;;
23730;SDS011;12046;44.702;10.622;2024-02-26T10:18:12;4.85;;;4.45;;
23730;SDS011;12046;44.702;10.622;2024-02-26T10:20:38;5.10;;;4.68;;
23730;SDS011;12046;44.702;10.622;2024-02-26T10:23:03;5.75;;;4.55;;
23730;SDS011;12046;44.702;10.622;2024-02-26T10:25:30;5.53;;;4.28;;
23730;SDS011;12046;44.702;10.622;2024-02-26T10:28:00;5.47;;;4.38;;
23730;SDS011;12046;44.702;10.622;2024-02-26T10:30:27;7.03;;;4.47;;
23730;SDS011;12046;44.702;10.622;2024-02-26T10:32:53;5.13;;;4.63;;
23730;SDS011;12046;44.702;10.622;2024-02-26T10:35:20;5.03;;;4.55;;
23730;SDS011;12046;44.702;10.622;2024-02-26T10:37:46;4.80;;;4.40;;
23730;SDS011;12046;44.702;10.622;2024-02-26T10:40:12;4.72;;;4.30;;
23730;SDS011;12046;44.702;10.622;2024-02-26T10:42:38;4.25;;;3.95;;
23730;SDS011;12046;44.702;10.622;2024-02-26T10:45:06;6.18;;;4.00;;
23730;SDS011;12046;44.702;10.622;2024-02-26T10:47:32;5.57;;;3.70;;
23730;SDS011;12046;44.702;10.622;2024-02-26T10:49:59;5.65;;;3.70;;
23730;SDS011;12046;44.702;10.622;2024-02-26T10:52:25;4.28;;;3.88;;
23730;SDS011;12046;44.702;10.622;2024-02-26T10:54:52;5.35;;;4.15;;
23730;SDS011;12046;44.702;10.622;2024-02-26T10:57:19;4.85;;;3.72;;
23730;SDS011;12046;44.702;10.622;2024-02-26T10:59:45;4.32;;;3.47;;
23730;SDS011;12046;44.702;10.622;2024-02-26T11:02:11;3.60;;;3.30;;
23730;SDS011;12046;44.702;10.622;2024-02-26T11:04:38;3.80;;;3.38;;
23730;SDS011;12046;44.702;10.622;2024-02-26T11:07:04;3.53;;;3.22;;
23730;SDS011;12046;44.702;10.622;2024-02-26T11:09:31;3.67;;;3.33;;
23730;SDS011;12046;44.702;10.622;2024-02-26T11:11:58;3.67;;;3.38;;
23730;SDS011;12046;44.702;10.622;2024-02-26T11:14:24;4.07;;;3.70;;
23730;SDS011;12046;44.702;10.622;2024-02-26T11:16:51;3.08;;;2.88;;
23730;SDS011;12046;44.702;10.622;2024-02-26T11:19:19;3.88;;;3.33;;
23730;SDS011;12046;44.702;10.622;2024-02-26T11:21:45;3.63;;;3.33;;
23730;SDS011;12046;44.702;10.622;2024-02-26T11:24:15;3.33;;;3.00;;
23730;SDS011;12046;44.702;10.622;2024-02-26T11:27:00;3.72;;;3.42;;
23730;SDS011;12046;44.702;10.622;2024-02-26T11:29:28;4.35;;;3.65;;
23730;SDS011;12046;44.702;10.622;2024-02-26T11:31:55;4.20;;;3.47;;
23730;SDS011;12046;44.702;10.622;2024-02-26T11:34:21;3.20;;;3.00;;
23730;SDS011;12046;44.702;10.622;2024-02-26T11:36:47;3.33;;;3.03;;
23730;SDS011;12046;44.702;10.622;2024-02-26T11:39:12;4.45;;;3.33;;
23730;SDS011;12046;44.702;10.622;2024-02-26T11:41:40;4.20;;;3.47;;
23730;SDS011;12046;44.702;10.622;2024-02-26T11:44:06;6.18;;;3.58;;
23730;SDS011;12046;44.702;10.622;2024-02-26T11:46:33;2.83;;;2.63;;
23730;SDS011;12046;44.702;10.622;2024-02-26T11:49:00;3.20;;;2.72;;
23730;SDS011;12046;44.702;10.622;2024-02-26T11:51:26;2.90;;;2.70;;
23730;SDS011;12046;44.702;10.622;2024-02-26T11:53:53;3.25;;;2.95;;
23730;SDS011;12046;44.702;10.622;2024-02-26T11:56:20;4.60;;;3.08;;
23730;SDS011;12046;44.702;10.622;2024-02-26T11:58:59;3.13;;;2.80;;
23730;SDS011;12046;44.702;10.622;2024-02-26T12:04:19;2.78;;;2.55;;
23730;SDS011;12046;44.702;10.622;2024-02-26T12:06:48;6.70;;;3.17;;
23730;SDS011;12046;44.702;10.622;2024-02-26T12:12:10;3.17;;;2.40;;
23730;SDS011;12046;44.702;10.622;2024-02-26T12:14:39;4.43;;;3.85;;
23730;SDS011;12046;44.702;10.622;2024-02-26T12:17:06;3.65;;;3.00;;
23730;SDS011;12046;44.702;10.622;2024-02-26T12:19:35;3.08;;;2.65;;
23730;SDS011;12046;44.702;10.622;2024-02-26T12:22:02;2.55;;;2.33;;
23730;SDS011;12046;44.702;10.622;2024-02-26T12:24:28;2.67;;;2.45;;
23730;SDS011;12046;44.702;10.622;2024-02-26T12:26:53;2.38;;;2.17;;
23730;SDS011;12046;44.702;10.622;2024-02-26T12:29:19;3.10;;;2.13;;
23730;SDS011;12046;44.702;10.622;2024-02-26T12:31:45;1.98;;;1.73;;
23730;SDS011;12046;44.702;10.622;2024-02-26T12:34:11;2.13;;;1.92;;
23730;SDS011;12046;44.702;10.622;2024-02-26T12:36:37;2.80;;;1.50;;
23730;SDS011;12046;44.702;10.622;2024-02-26T12:39:05;2.33;;;1.70;;
23730;SDS011;12046;44.702;10.622;2024-02-26T12:41:35;1.80;;;1.55;;
23730;SDS011;12046;44.702;10.622;2024-02-26T12:44:00;3.15;;;1.98;;
23730;SDS011;12046;44.702;10.622;2024-02-26T12:46:26;2.97;;;1.50;;
23730;SDS011;12046;44.702;10.622;2024-02-26T12:48:54;1.60;;;1.50;;
23730;SDS011;12046;44.702;10.622;2024-02-26T12:51:22;3.45;;;1.90;;
23730;SDS011;12046;44.702;10.622;2024-02-26T12:53:48;3.85;;;1.75;;
23730;SDS011;12046;44.702;10.622;2024-02-26T12:56:15;2.22;;;1.90;;
23730;SDS011;12046;44.702;10.622;2024-02-26T12:58:41;2.78;;;2.08;;
23730;SDS011;12046;44.702;10.622;2024-02-26T13:01:07;3.47;;;2.00;;
23730;SDS011;12046;44.702;10.622;2024-02-26T13:03:39;1.80;;;1.67;;
23730;SDS011;12046;44.702;10.622;2024-02-26T13:06:04;2.85;;;1.88;;
23730;SDS011;12046;44.702;10.622;2024-02-26T13:08:31;2.40;;;2.20;;
23730;SDS011;12046;44.702;10.622;2024-02-26T13:10:58;2.85;;;2.15;;
23730;SDS011;12046;44.702;10.622;2024-02-26T13:13:24;3.05;;;2.50;;
23730;SDS011;12046;44.702;10.622;2024-02-26T13:15:49;4.10;;;2.72;;
23730;SDS011;12046;44.702;10.622;2024-02-26T13:18:15;3.30;;;3.00;;
23730;SDS011;12046;44.702;10.622;2024-02-26T13:20:41;4.15;;;3.60;;
23730;SDS011;12046;44.702;10.622;2024-02-26T13:23:08;4.40;;;3.53;;
23730;SDS011;12046;44.702;10.622;2024-02-26T13:25:36;4.10;;;3.67;;
23730;SDS011;12046;44.702;10.622;2024-02-26T13:30:34;4.93;;;3.67;;
23730;SDS011;12046;44.702;10.622;2024-02-26T13:33:10;4.53;;;4.13;;
23730;SDS011;12046;44.702;10.622;2024-02-26T13:35:36;5.43;;;4.50;;
23730;SDS011;12046;44.702;10.622;2024-02-26T13:38:02;5.50;;;4.28;;
23730;SDS011;12046;44.702;10.622;2024-02-26T13:40:28;4.57;;;4.10;;
23730;SDS011;12046;44.702;10.622;2024-02-26T13:42:55;4.47;;;4.05;;
23730;SDS011;12046;44.702;10.622;2024-02-26T13:45:20;4.78;;;4.38;;
23730;SDS011;12046;44.702;10.622;2024-02-26T13:47:46;4.53;;;4.10;;
23730;SDS011;12046;44.702;10.622;2024-02-26T13:50:12;6.43;;;4.45;;
23730;SDS011;12046;44.702;10.622;2024-02-26T13:52:38;4.57;;;4.18;;
23730;SDS011;12046;44.702;10.622;2024-02-26T13:55:03;4.60;;;4.20;;
23730;SDS011;12046;44.702;10.622;2024-02-26T13:57:29;5.85;;;4.00;;
23730;SDS011;12046;44.702;10.622;2024-02-26T13:59:55;4.97;;;4.20;;
23730;SDS011;12046;44.702;10.622;2024-02-26T14:02:21;4.03;;;3.65;;
23730;SDS011;12046;44.702;10.622;2024-02-26T14:04:47;4.72;;;4.32;;
23730;SDS011;12046;44.702;10.622;2024-02-26T14:07:13;3.47;;;3.17;;
23730;SDS011;12046;44.702;10.622;2024-02-26T14:09:38;4.22;;;2.95;;
23730;SDS011;12046;44.702;10.622;2024-02-26T14:12:04;3.28;;;2.90;;
23730;SDS011;12046;44.702;10.622;2024-02-26T14:14:30;2.85;;;2.35;;
23730;SDS011;12046;44.702;10.622;2024-02-26T14:17:00;3.10;;;2.13;;
23730;SDS011;12046;44.702;10.622;2024-02-26T14:19:26;3.70;;;1.80;;
23730;SDS011;12046;44.702;10.622;2024-02-26T14:21:52;3.13;;;1.50;;
23730;SDS011;12046;44.702;10.622;2024-02-26T14:24:18;1.73;;;1.60;;
23730;SDS011;12046;44.702;10.622;2024-02-26T14:26:44;2.33;;;1.73;;
23730;SDS011;12046;44.702;10.622;2024-02-26T14:29:10;3.17;;;1.80;;
23730;SDS011;12046;44.702;10.622;2024-02-26T14:31:35;1.35;;;1.25;;
23730;SDS011;12046;44.702;10.622;2024-02-26T14:34:01;1.38;;;1.00;;
23730;SDS011;12046;44.702;10.622;2024-02-26T14:36:27;2.92;;;1.20;;